createdAt,value
2022-08-17T00:00:42.715Z,94872.38
2022-08-17T00:03:32.672Z,94877.95
2022-08-17T00:06:13.166Z,94882.93
2022-08-17T00:08:55.868Z,94881.84
2022-08-17T00:11:32.333Z,94883.05
2022-08-17T00:14:11.080Z,94881.52
2022-08-17T00:16:56.304Z,94879.20
2022-08-17T00:19:28.328Z,94878.58
2022-08-17T00:22:32.814Z,94873.19
2022-08-17T00:24:51.315Z,94871.36
2022-08-17T00:27:21.755Z,94868.88
2022-08-17T00:29:52.672Z,94866.08
2022-08-17T00:33:11.823Z,94864.83
2022-08-17T00:35:13.668Z,94860.55
2022-08-17T00:37:42.497Z,94863.98
2022-08-17T00:40:13.688Z,94867.10
2022-08-17T00:42:45.134Z,94864.86
2022-08-17T00:45:16.806Z,94862.95
2022-08-17T00:47:45.903Z,94860.33
2022-08-17T00:50:17.560Z,94863.86
2022-08-17T00:52:53.651Z,94865.05
2022-08-17T00:55:26.470Z,94869.65
2022-08-17T00:58:00.876Z,94870.48
2022-08-17T01:00:36.550Z,94872.64
2022-08-17T01:03:15.297Z,94870.89
2022-08-17T01:05:43.856Z,94869.52
2022-08-17T01:08:17.143Z,94868.17
2022-08-17T01:10:59.456Z,94868.95
2022-08-17T01:13:39.777Z,94871.02
2022-08-17T01:16:33.102Z,94871.70
2022-08-17T01:19:26.987Z,94876.64
2022-08-17T01:22:04.338Z,94874.42
2022-08-17T01:24:34.282Z,94873.48
2022-08-17T01:27:10.429Z,94868.39
2022-08-17T01:29:44.048Z,94869.21
2022-08-17T01:32:14.533Z,94865.85
2022-08-17T01:34:45.519Z,94866.89
2022-08-17T01:37:21.672Z,94866.89
2022-08-17T01:39:56.209Z,94864.73
2022-08-17T01:42:31.956Z,94866.95
2022-08-17T01:45:11.758Z,94862.43
2022-08-17T01:47:42.026Z,94864.02
2022-08-17T01:50:16.264Z,94863.64
2022-08-17T01:52:47.051Z,94865.40
2022-08-17T01:55:24.573Z,94862.48
2022-08-17T01:57:57.147Z,94859.92
2022-08-17T02:00:27.939Z,94860.49
2022-08-17T02:03:17.395Z,94858.75
2022-08-17T02:05:50.265Z,94859.17
2022-08-17T02:08:39.130Z,94859.09
2022-08-17T02:11:19.361Z,94860.21
2022-08-17T02:13:55.053Z,94861.48
2022-08-17T02:16:39.453Z,94864.80
2022-08-17T02:19:11.509Z,94871.25
2022-08-17T02:21:42.358Z,94871.05
2022-08-17T02:24:58.834Z,94870.48
2022-08-17T02:27:07.997Z,94874.91
2022-08-17T02:29:37.397Z,94882.73
2022-08-17T02:32:06.152Z,94879.95
2022-08-17T02:34:35.001Z,94879.29
2022-08-17T02:37:03.645Z,94876.90
2022-08-17T02:39:32.217Z,94871.23
2022-08-17T02:42:04.998Z,94874.23
2022-08-17T02:44:39.625Z,94866.75
2022-08-17T02:47:12.719Z,94870.23
2022-08-17T02:49:46.301Z,94871.64
2022-08-17T02:52:43.508Z,94875.90
2022-08-17T02:55:17.290Z,94874.84
2022-08-17T02:57:46.487Z,94870.52
2022-08-17T03:00:21.416Z,94871.98
2022-08-17T03:02:50.950Z,94875.06
2022-08-17T03:05:22.138Z,94877.25
2022-08-17T03:07:51.360Z,94878.98
2022-08-17T03:10:21.857Z,94879.64
2022-08-17T03:12:53.078Z,94882.04
2022-08-17T03:15:31.699Z,94882.83
2022-08-17T03:18:03.778Z,94882.38
2022-08-17T03:20:34.548Z,94885.11
2022-08-17T03:23:04.030Z,94884.42
2022-08-17T03:25:43.478Z,94886.94
2022-08-17T03:28:12.878Z,94888.71
2022-08-17T03:30:42.098Z,94890.83
2022-08-17T03:33:11.204Z,94890.82
2022-08-17T03:35:41.703Z,94887.70
2022-08-17T03:38:12.025Z,94889.67
2022-08-17T03:40:57.565Z,94889.96
2022-08-17T03:43:31.882Z,94889.80
2022-08-17T03:46:28.100Z,94896.59
2022-08-17T03:49:26.183Z,94894.67
2022-08-17T03:52:16.574Z,94898.20
2022-08-17T03:55:05.814Z,94901.30
2022-08-17T03:57:34.304Z,94906.95
2022-08-17T04:00:04.806Z,94906.55
2022-08-17T04:02:42.658Z,94907.16
2022-08-17T04:05:12.220Z,94912.30
2022-08-17T04:07:43.865Z,94912.23
2022-08-17T04:10:13.558Z,94915.65
2022-08-17T04:12:58.460Z,94921.90
2022-08-17T04:15:27.346Z,94922.98
2022-08-17T04:17:55.843Z,94928.69
2022-08-17T04:20:26.517Z,94931.09
2022-08-17T04:23:28.568Z,94933.59
2022-08-17T04:25:57.720Z,94935.11
2022-08-17T04:28:26.726Z,94937.64
2022-08-17T04:30:56.754Z,94940.47
2022-08-17T04:33:27.707Z,94937.80
2022-08-17T04:36:03.205Z,94936.63
2022-08-17T04:38:35.188Z,94933.95
2022-08-17T04:41:23.930Z,94937.69
2022-08-17T04:43:59.024Z,94937.59
2022-08-17T04:46:33.785Z,94935.66
2022-08-17T04:49:06.717Z,94936.65
2022-08-17T04:51:39.030Z,94939.67
2022-08-17T04:54:20.542Z,94941.17
2022-08-17T04:56:49.486Z,94941.39
2022-08-17T04:59:21.511Z,94939.96
2022-08-17T05:01:52.132Z,94936.25
2022-08-17T05:04:34.023Z,94939.25
2022-08-17T05:07:05.262Z,94936.83
2022-08-17T05:09:34.872Z,94935.25
2022-08-17T05:12:04.973Z,94942.20
2022-08-17T05:14:35.632Z,94944.66
2022-08-17T05:17:11.021Z,94946.21
2022-08-17T05:19:41.437Z,94943.23
2022-08-17T05:22:10.855Z,94945.67
2022-08-17T05:24:43.582Z,94941.88
2022-08-17T05:27:23.474Z,94943.72
2022-08-17T05:29:52.612Z,94943.90
2022-08-17T05:32:39.284Z,94946.00
2022-08-17T05:35:09.520Z,94940.95
2022-08-17T05:37:39.567Z,94938.36
2022-08-17T05:40:10.440Z,94939.06
2022-08-17T05:42:39.415Z,94942.80
2022-08-17T05:45:09.905Z,94938.16
2022-08-17T05:47:42.859Z,94938.23
2022-08-17T05:50:26.037Z,94935.23
2022-08-17T05:53:16.181Z,94940.79
2022-08-17T05:56:22.716Z,94945.20
2022-08-17T05:59:11.814Z,94945.58
2022-08-17T06:02:12.574Z,94944.21
2022-08-17T06:04:44.612Z,94941.38
2022-08-17T06:07:33.087Z,94937.02
2022-08-17T06:10:14.881Z,94939.00
2022-08-17T06:12:49.010Z,94940.86
2022-08-17T06:15:35.996Z,94936.17
2022-08-17T06:18:08.949Z,94942.33
2022-08-17T06:20:50.644Z,94945.26
2022-08-17T06:24:10.880Z,94938.73
2022-08-17T06:26:43.472Z,94940.05
2022-08-17T06:29:27.359Z,94938.98
2022-08-17T06:31:59.418Z,94942.58
2022-08-17T06:34:28.461Z,94944.73
2022-08-17T06:37:21.289Z,94947.77
2022-08-17T06:40:11.184Z,94951.06
2022-08-17T06:43:05.769Z,94955.39
2022-08-17T06:45:41.486Z,94951.88
2022-08-17T06:48:31.494Z,94952.79
2022-08-17T06:51:27.796Z,94956.94
2022-08-17T06:54:07.163Z,94964.91
2022-08-17T06:56:52.988Z,94960.32
2022-08-17T06:59:47.163Z,94964.52
2022-08-17T07:02:29.143Z,94966.07
2022-08-17T07:05:17.786Z,94970.05
2022-08-17T07:08:17.002Z,94968.34
2022-08-17T07:10:56.816Z,94970.42
2022-08-17T07:13:40.434Z,94971.21
2022-08-17T07:16:36.738Z,94976.31
2022-08-17T07:19:07.991Z,94974.55
2022-08-17T07:22:04.837Z,94974.56
2022-08-17T07:24:47.523Z,94973.58
2022-08-17T07:27:21.036Z,94971.77
2022-08-17T07:29:59.338Z,94962.73
2022-08-17T07:32:41.721Z,94966.60
2022-08-17T07:35:15.664Z,94965.13
2022-08-17T07:38:25.457Z,94969.59
2022-08-17T07:41:02.417Z,94967.05
2022-08-17T07:43:40.581Z,94962.59
2022-08-17T07:46:34.479Z,94959.68
2022-08-17T07:49:08.802Z,94961.07
2022-08-17T07:51:43.487Z,94962.91
2022-08-17T07:54:26.242Z,94961.31
2022-08-17T07:57:03.769Z,94967.70
2022-08-17T07:59:36.805Z,94966.56
2022-08-17T08:02:31.890Z,94972.23
2022-08-17T08:05:29.972Z,94972.07
2022-08-17T08:08:33.484Z,94971.14
2022-08-17T08:11:12.496Z,94979.23
2022-08-17T08:13:44.007Z,94974.89
2022-08-17T08:16:29.865Z,94980.55
2022-08-17T08:19:01.700Z,94980.59
2022-08-17T08:21:57.736Z,94981.28
2022-08-17T08:24:52.020Z,94984.89
2022-08-17T08:27:30.515Z,94984.71
2022-08-17T08:30:17.373Z,94985.01
2022-08-17T08:33:17.444Z,94985.14
2022-08-17T08:36:58.138Z,94985.30
2022-08-17T08:39:52.063Z,94985.20
2022-08-17T08:42:29.247Z,94983.01
2022-08-17T08:45:22.727Z,94984.52
2022-08-17T08:48:22.924Z,94984.80
2022-08-17T08:51:06.312Z,94982.40
2022-08-17T08:54:01.767Z,94981.86
2022-08-17T08:57:22.300Z,94986.04
2022-08-17T08:59:59.897Z,94987.85
2022-08-17T09:02:55.864Z,94986.69
2022-08-17T09:05:56.692Z,94984.70
2022-08-17T09:08:41.358Z,94991.95
2022-08-17T09:11:22.651Z,94990.83
2022-08-17T09:14:21.508Z,94989.20
2022-08-17T09:17:15.239Z,94984.70
2022-08-17T09:19:51.686Z,94988.42
2022-08-17T09:22:37.508Z,94996.13
2022-08-17T09:25:28.620Z,94997.75
2022-08-17T09:28:05.871Z,94993.71
2022-08-17T09:30:47.692Z,94990.75
2022-08-17T09:33:23.822Z,94992.21
2022-08-17T09:35:59.379Z,94986.86
2022-08-17T09:39:03.624Z,94984.70
2022-08-17T09:41:37.716Z,94991.70
2022-08-17T09:44:32.454Z,94988.53
2022-08-17T09:47:47.615Z,94993.22
2022-08-17T09:50:55.424Z,94988.07
2022-08-17T09:53:27.118Z,94987.11
2022-08-17T09:56:14.754Z,94986.48
2022-08-17T09:58:56.775Z,94994.58
2022-08-17T10:01:36.980Z,94991.59
2022-08-17T10:04:29.337Z,94995.56
2022-08-17T10:07:15.064Z,94994.50
2022-08-17T10:09:51.222Z,94992.57
2022-08-17T10:12:29.767Z,94987.41
2022-08-17T10:15:09.533Z,94991.72
2022-08-17T10:18:08.695Z,94988.27
2022-08-17T10:21:15.568Z,94981.45
2022-08-17T10:24:24.819Z,94985.80
2022-08-17T10:26:58.494Z,94984.46
2022-08-17T10:29:49.005Z,94988.80
2022-08-17T10:32:35.893Z,94983.50
2022-08-17T10:35:26.192Z,94986.98
2022-08-17T10:38:14.969Z,94982.96
2022-08-17T10:40:55.001Z,94983.59
2022-08-17T10:44:37.603Z,94980.88
2022-08-17T10:47:11.888Z,94980.07
2022-08-17T10:49:48.187Z,94972.24
2022-08-17T10:52:20.171Z,94974.45
2022-08-17T10:54:51.852Z,94974.52
2022-08-17T10:57:29.967Z,94974.10
2022-08-17T11:00:18.472Z,94977.15
2022-08-17T11:02:53.747Z,94976.51
2022-08-17T11:05:54.249Z,94977.17
2022-08-17T11:08:53.940Z,94985.23
2022-08-17T11:11:36.787Z,94984.14
2022-08-17T11:14:24.259Z,94982.91
2022-08-17T11:17:12.432Z,94983.54
2022-08-17T11:20:17.056Z,94981.45
2022-08-17T11:22:49.113Z,94982.73
2022-08-17T11:25:32.288Z,94980.39
2022-08-17T11:28:24.116Z,94975.88
2022-08-17T11:30:57.647Z,94979.39
2022-08-17T11:33:29.543Z,94980.95
2022-08-17T11:36:39.141Z,94974.98
2022-08-17T11:39:13.851Z,94978.95
2022-08-17T11:41:58.612Z,94978.38
2022-08-17T11:45:08.341Z,94975.88
2022-08-17T11:48:29.188Z,94973.01
2022-08-17T11:51:36.353Z,94967.73
2022-08-17T11:54:34.546Z,94970.86
2022-08-17T11:57:27.424Z,94966.45
2022-08-17T12:00:12.029Z,94963.81
2022-08-17T12:02:48.317Z,94967.30
2022-08-17T12:05:17.206Z,94965.23
2022-08-17T12:08:07.416Z,94964.88
2022-08-17T12:10:49.685Z,94969.93
2022-08-17T12:13:19.658Z,94968.92
2022-08-17T12:15:53.003Z,94963.10
2022-08-17T12:18:36.061Z,94971.52
2022-08-17T12:21:22.443Z,94971.19
2022-08-17T12:23:56.106Z,94965.61
2022-08-17T12:26:32.143Z,94957.64
2022-08-17T12:29:06.800Z,94960.40
2022-08-17T12:31:46.194Z,94962.24
2022-08-17T12:34:26.743Z,94961.65
2022-08-17T12:37:05.216Z,94963.76
2022-08-17T12:39:34.178Z,94967.11
2022-08-17T12:42:06.061Z,94967.91
2022-08-17T12:44:46.168Z,94969.67
2022-08-17T12:47:22.726Z,94968.55
2022-08-17T12:49:55.541Z,94966.31
2022-08-17T12:52:33.336Z,94966.23
2022-08-17T12:55:18.311Z,94968.48
2022-08-17T12:57:59.942Z,94956.90
2022-08-17T13:00:38.361Z,94966.35
2022-08-17T13:03:12.738Z,94959.65
2022-08-17T13:05:59.721Z,94967.98
2022-08-17T13:08:35.450Z,94967.83
2022-08-17T13:11:09.714Z,94968.52
2022-08-17T13:13:45.003Z,94970.77
2022-08-17T13:16:14.501Z,94972.83
2022-08-17T13:18:52.042Z,94976.84
2022-08-17T13:21:24.542Z,94971.19
2022-08-17T13:24:17.856Z,94975.48
2022-08-17T13:26:52.505Z,94977.52
2022-08-17T13:29:33.735Z,94978.98
2022-08-17T13:32:13.000Z,94975.95
2022-08-17T13:35:13.475Z,94975.92
2022-08-17T13:37:36.151Z,94977.28
2022-08-17T13:40:11.035Z,94977.46
2022-08-17T13:42:51.904Z,94976.36
2022-08-17T13:45:36.114Z,94974.55
2022-08-17T13:48:12.382Z,94971.24
2022-08-17T13:50:58.169Z,94979.70
2022-08-17T13:53:32.868Z,94980.34
2022-08-17T13:56:37.385Z,94980.62
2022-08-17T13:59:53.443Z,94980.55
2022-08-17T14:02:21.214Z,94979.66
2022-08-17T14:04:51.623Z,94976.25
2022-08-17T14:07:33.967Z,94973.59
2022-08-17T14:10:06.404Z,94970.16
2022-08-17T14:12:38.384Z,94969.56
2022-08-17T14:15:08.497Z,94967.10
2022-08-17T14:17:39.134Z,94964.41
2022-08-17T14:20:12.098Z,94966.29
2022-08-17T14:22:45.422Z,94971.02
2022-08-17T14:25:21.130Z,94973.79
2022-08-17T14:27:54.350Z,94979.84
2022-08-17T14:30:26.702Z,94979.42
2022-08-17T14:32:59.461Z,94982.02
2022-08-17T14:35:29.608Z,94979.20
2022-08-17T14:37:59.786Z,94984.55
2022-08-17T14:40:31.833Z,94982.60
2022-08-17T14:43:01.609Z,94983.85
2022-08-17T14:45:34.680Z,94987.98
2022-08-17T14:48:08.175Z,94992.16
2022-08-17T14:50:42.204Z,94995.67
2022-08-17T14:53:13.891Z,94991.91
2022-08-17T14:55:46.943Z,94998.00
2022-08-17T14:58:19.696Z,94995.77
2022-08-17T15:00:51.085Z,94997.92
2022-08-17T15:03:22.999Z,94995.17
2022-08-17T15:05:52.581Z,94998.02
2022-08-17T15:08:22.414Z,94994.66
2022-08-17T15:10:54.363Z,94995.86
2022-08-17T15:13:26.514Z,94992.92
2022-08-17T15:15:55.442Z,94992.91
2022-08-17T15:18:25.364Z,94991.52
2022-08-17T15:20:53.993Z,94983.77
2022-08-17T15:23:26.465Z,94979.88
2022-08-17T15:25:55.404Z,94979.36
2022-08-17T15:28:26.195Z,94979.08
2022-08-17T15:30:56.912Z,94980.46
2022-08-17T15:33:32.955Z,94978.49
2022-08-17T15:36:06.708Z,94978.71
2022-08-17T15:38:39.442Z,94987.48
2022-08-17T15:41:13.863Z,94991.54
2022-08-17T15:43:44.969Z,94994.02
2022-08-17T15:46:23.238Z,95002.05
2022-08-17T15:48:57.549Z,95001.93
2022-08-17T15:51:30.955Z,95008.32
2022-08-17T15:54:31.711Z,95012.91
2022-08-17T15:57:04.650Z,95016.73
2022-08-17T15:59:35.009Z,95017.52
2022-08-17T16:03:13.968Z,95017.58
2022-08-17T16:05:12.759Z,95026.52
2022-08-17T16:07:43.620Z,95025.79
2022-08-17T16:10:16.744Z,95026.45
2022-08-17T16:12:50.609Z,95023.13
2022-08-17T16:15:19.478Z,95016.02
2022-08-17T16:17:48.022Z,95021.17
2022-08-17T16:20:20.281Z,95023.79
2022-08-17T16:22:55.478Z,95030.38
2022-08-17T16:25:52.707Z,95039.17
2022-08-17T16:28:19.329Z,95041.88
2022-08-17T16:30:49.709Z,95033.39
2022-08-17T16:33:19.014Z,95026.59
2022-08-17T16:35:47.608Z,95027.13
2022-08-17T16:38:17.910Z,95031.23
2022-08-17T16:40:47.483Z,95039.10
2022-08-17T16:43:17.466Z,95045.88
2022-08-17T16:45:51.870Z,95050.09
2022-08-17T16:48:20.831Z,95047.48
2022-08-17T16:51:03.476Z,95046.84
2022-08-17T16:53:37.521Z,95046.62
2022-08-17T16:56:09.467Z,95052.42
2022-08-17T16:58:39.602Z,95051.20
2022-08-17T17:01:09.114Z,95051.81
2022-08-17T17:03:40.966Z,95053.17
2022-08-17T17:06:37.774Z,95060.08
2022-08-17T17:09:30.396Z,95062.94
2022-08-17T17:12:03.083Z,95066.30
2022-08-17T17:14:46.778Z,95069.86
2022-08-17T17:17:28.680Z,95069.83
2022-08-17T17:20:17.486Z,95077.06
2022-08-17T17:22:49.805Z,95086.23
2022-08-17T17:25:30.085Z,95081.73
2022-08-17T17:28:15.400Z,95074.15
2022-08-17T17:30:50.475Z,95065.04
2022-08-17T17:33:29.493Z,95068.61
2022-08-17T17:36:27.431Z,95074.02
2022-08-17T17:39:05.664Z,95071.98
2022-08-17T17:41:44.925Z,95070.77
2022-08-17T17:44:17.953Z,95067.23
2022-08-17T17:46:56.287Z,95071.26
2022-08-17T17:49:30.400Z,95081.00
2022-08-17T17:52:24.451Z,95076.92
2022-08-17T17:55:20.670Z,95070.96
2022-08-17T17:58:02.841Z,95071.16
2022-08-17T18:00:55.230Z,95076.51
2022-08-17T18:03:51.462Z,95077.42
2022-08-17T18:06:27.378Z,95074.86
2022-08-17T18:09:33.795Z,95084.23
2022-08-17T18:12:19.935Z,95081.75
2022-08-17T18:15:09.969Z,95086.58
2022-08-17T18:17:38.523Z,95090.52
2022-08-17T18:20:08.270Z,95093.20
2022-08-17T18:22:40.735Z,95094.59
2022-08-17T18:25:44.114Z,95099.61
2022-08-17T18:28:27.558Z,95101.63
2022-08-17T18:31:13.676Z,95104.08
2022-08-17T18:33:46.254Z,95104.59
2022-08-17T18:36:32.222Z,95104.33
2022-08-17T18:39:23.629Z,95109.28
2022-08-17T18:41:54.958Z,95111.03
2022-08-17T18:44:29.579Z,95108.08
2022-08-17T18:47:12.796Z,95108.34
2022-08-17T18:49:43.966Z,95107.61
2022-08-17T18:52:17.476Z,95112.59
2022-08-17T18:55:15.326Z,95114.60
2022-08-17T18:57:48.346Z,95110.83
2022-08-17T19:00:21.356Z,95116.36
2022-08-17T19:03:01.243Z,95112.60
2022-08-17T19:05:37.965Z,95111.52
2022-08-17T19:08:26.344Z,95116.13
2022-08-17T19:11:03.163Z,95114.02
2022-08-17T19:13:37.627Z,95113.63
2022-08-17T19:16:27.991Z,95109.16
2022-08-17T19:19:19.849Z,95101.13
2022-08-17T19:21:55.127Z,95099.52
2022-08-17T19:24:27.449Z,95101.65
2022-08-17T19:27:19.614Z,95100.75
2022-08-17T19:30:08.372Z,95098.70
2022-08-17T19:32:38.267Z,95102.85
2022-08-17T19:35:13.705Z,95102.64
2022-08-17T19:38:04.401Z,95105.14
2022-08-17T19:40:54.050Z,95108.77
2022-08-17T19:44:07.743Z,95111.55
2022-08-17T19:47:30.467Z,95116.86
2022-08-17T19:50:18.988Z,95118.92
2022-08-17T19:53:02.259Z,95113.61
2022-08-17T19:55:49.549Z,95116.33
2022-08-17T19:58:45.842Z,95110.96
2022-08-17T20:01:38.365Z,95113.05
2022-08-17T20:04:32.292Z,95116.14
2022-08-17T20:07:10.787Z,95119.13
2022-08-17T20:09:47.502Z,95124.30
2022-08-17T20:12:29.854Z,95121.17
2022-08-17T20:15:18.549Z,95117.57
2022-08-17T20:17:48.826Z,95118.16
2022-08-17T20:20:43.972Z,95120.63
2022-08-17T20:24:00.252Z,95123.32
2022-08-17T20:26:58.704Z,95131.55
2022-08-17T20:30:13.017Z,95127.06
2022-08-17T20:33:02.513Z,95120.21
2022-08-17T20:35:37.264Z,95121.52
2022-08-17T20:38:35.941Z,95114.06
2022-08-17T20:41:04.643Z,95112.41
2022-08-17T20:43:35.853Z,95111.04
2022-08-17T20:46:16.606Z,95115.59
2022-08-17T20:48:51.473Z,95105.55
2022-08-17T20:51:27.404Z,95101.37
2022-08-17T20:54:04.543Z,95101.62
2022-08-17T20:56:45.153Z,95107.07
2022-08-17T20:59:26.046Z,95108.81
2022-08-17T21:02:18.573Z,95110.83
2022-08-17T21:04:54.701Z,95110.51
2022-08-17T21:07:42.945Z,95109.98
2022-08-17T21:10:24.257Z,95107.80
2022-08-17T21:13:00.310Z,95109.23
2022-08-17T21:15:44.017Z,95105.19
2022-08-17T21:18:34.804Z,95100.55
2022-08-17T21:21:26.632Z,95098.70
2022-08-17T21:24:26.197Z,95099.59
2022-08-17T21:27:21.629Z,95098.31
2022-08-17T21:30:15.147Z,95099.45
2022-08-17T21:33:05.034Z,95102.38
2022-08-17T21:35:58.660Z,95103.89
2022-08-17T21:38:56.979Z,95107.20
2022-08-17T21:41:34.239Z,95106.67
2022-08-17T21:44:18.388Z,95108.92
2022-08-17T21:46:50.363Z,95108.55
2022-08-17T21:49:25.651Z,95107.84
2022-08-17T21:51:56.962Z,95108.38
2022-08-17T21:54:39.173Z,95110.43
2022-08-17T21:57:18.331Z,95111.52
2022-08-17T21:59:54.172Z,95110.33
2022-08-17T22:02:28.610Z,95113.45
2022-08-17T22:05:13.182Z,95114.23
2022-08-17T22:07:51.002Z,95112.27
2022-08-17T22:10:38.244Z,95110.98
2022-08-17T22:13:06.538Z,95107.21
2022-08-17T22:16:27.802Z,95107.98
2022-08-17T22:18:59.168Z,95108.02
2022-08-17T22:21:27.748Z,95108.34
2022-08-17T22:24:06.128Z,95105.26
2022-08-17T22:27:14.154Z,95101.59
2022-08-17T22:29:57.467Z,95097.34
2022-08-17T22:32:37.740Z,95100.34
2022-08-17T22:35:41.327Z,95099.95
2022-08-17T22:38:19.064Z,95099.64
2022-08-17T22:40:55.190Z,95094.98
2022-08-17T22:43:28.828Z,95093.58
2022-08-17T22:46:00.526Z,95096.73
2022-08-17T22:48:30.613Z,95102.89
2022-08-17T22:51:12.429Z,95102.80
2022-08-17T22:54:30.434Z,95103.01
2022-08-17T22:57:21.502Z,95104.70
2022-08-17T22:59:56.620Z,95108.71
2022-08-17T23:02:26.652Z,95110.86
2022-08-17T23:05:16.881Z,95106.97
2022-08-17T23:07:47.589Z,95107.21
2022-08-17T23:10:16.502Z,95108.38
2022-08-17T23:12:49.188Z,95117.60
2022-08-17T23:15:20.872Z,95119.44
2022-08-17T23:17:50.566Z,95117.15
2022-08-17T23:20:20.553Z,95118.39
2022-08-17T23:22:51.911Z,95118.64
2022-08-17T23:25:29.313Z,95120.11
2022-08-17T23:27:59.444Z,95116.09
2022-08-17T23:30:31.387Z,95119.73
2022-08-17T23:33:02.787Z,95122.64
2022-08-17T23:35:40.444Z,95116.54
2022-08-17T23:38:13.233Z,95113.95
2022-08-17T23:40:43.980Z,95119.80
2022-08-17T23:43:23.777Z,95121.98
2022-08-17T23:45:56.220Z,95120.01
2022-08-17T23:48:35.325Z,95118.36
2022-08-17T23:51:13.707Z,95118.44
2022-08-17T23:53:48.554Z,95118.10
2022-08-17T23:56:23.674Z,95113.95
2022-08-17T23:58:55.535Z,95119.91
